Time;durP1;ratioP1;P1;durP2;ratioP2;P2;SDS_P1;SDS_P2;PMS_P1;PMS_P2;Temp;Humidity;BMP_temperature;BMP_pressure;BME280_temperature;BME280_humidity;BME280_pressure;Samples;Min_cycle;Max_cycle;Signal;HPM_P1;HPM_P2
2021/12/31 00:01:45;;;;;;;10.25;4.47;;;;;;;13.10;88.63;101398.16;6161837;23;20462;-82
2021/12/31 00:04:13;;;;;;;7.90;4.20;;;;;;;13.12;88.47;101393.59;6161991;23;20014;-82
2021/12/31 00:06:44;;;;;;;8.20;4.07;;;;;;;13.19;88.00;101399.91;6162669;23;20048;-83
2021/12/31 00:09:12;;;;;;;7.28;3.95;;;;;;;13.21;87.59;101385.63;6163132;23;20022;-82
2021/12/31 00:11:39;;;;;;;6.55;4.10;;;;;;;13.22;87.33;101395.16;6163905;23;20021;-82
2021/12/31 00:14:22;;;;;;;6.88;3.85;;;;;;;13.16;87.51;101381.81;6170139;23;20017;-80
2021/12/31 00:16:52;;;;;;;8.68;3.70;;;;;;;13.15;86.90;101378.34;6171177;23;20025;-84
2021/12/31 00:19:21;;;;;;;8.70;3.92;;;;;;;13.31;86.52;101392.56;6167779;23;20351;-84
2021/12/31 00:21:51;;;;;;;6.30;3.85;;;;;;;13.13;86.71;101372.41;6162571;23;20026;-83
2021/12/31 00:24:26;;;;;;;6.55;3.80;;;;;;;13.25;85.75;101383.50;6161710;23;20018;-83
2021/12/31 00:26:52;;;;;;;9.38;4.10;;;;;;;13.25;86.09;101388.75;6160807;23;20025;-82
2021/12/31 00:29:22;;;;;;;8.40;3.90;;;;;;;13.27;85.74;101385.00;6160089;23;20030;-80
2021/12/31 00:31:49;;;;;;;8.00;4.00;;;;;;;13.34;85.12;101382.56;6159979;23;20021;-80
2021/12/31 00:34:16;;;;;;;5.95;3.50;;;;;;;13.27;85.36;101371.03;6158936;23;20078;-81
2021/12/31 00:36:46;;;;;;;6.00;4.13;;;;;;;13.28;84.74;101367.41;6159733;23;20036;-81
2021/12/31 00:39:16;;;;;;;8.38;3.53;;;;;;;13.23;84.95;101369.72;6159711;23;20025;-82
2021/12/31 00:41:46;;;;;;;5.43;3.60;;;;;;;13.26;84.74;101370.19;6162154;23;20049;-82
2021/12/31 00:44:13;;;;;;;5.88;3.50;;;;;;;13.38;84.49;101383.91;6162097;23;20017;-81
2021/12/31 00:46:40;;;;;;;7.55;3.45;;;;;;;13.26;84.63;101364.94;6161791;23;20017;-80
2021/12/31 00:49:14;;;;;;;7.03;3.60;;;;;;;13.19;84.69;101371.81;6161989;23;20071;-81
2021/12/31 00:51:41;;;;;;;8.70;4.22;;;;;;;13.25;84.15;101363.28;6161532;23;20017;-80
2021/12/31 00:54:09;;;;;;;5.43;3.83;;;;;;;13.38;83.81;101383.09;6161907;23;20025;-82
2021/12/31 00:56:35;;;;;;;5.75;3.40;;;;;;;13.33;84.25;101369.56;6160272;23;20080;-81
2021/12/31 00:59:04;;;;;;;4.65;3.13;;;;;;;13.34;84.02;101372.06;6160819;23;20398;-82
2021/12/31 01:01:34;;;;;;;5.55;3.30;;;;;;;13.26;84.53;101379.88;6161263;23;20014;-80
2021/12/31 01:04:00;;;;;;;6.22;3.72;;;;;;;13.35;83.94;101383.38;6160026;23;20036;-81
2021/12/31 01:06:27;;;;;;;5.22;3.50;;;;;;;13.34;83.65;101384.38;6161223;23;20265;-82
2021/12/31 01:08:54;;;;;;;7.03;3.78;;;;;;;13.33;83.63;101380.91;6159126;23;20532;-82
2021/12/31 01:11:21;;;;;;;7.50;3.50;;;;;;;13.39;83.15;101382.94;6158918;23;20100;-80
2021/12/31 01:13:54;;;;;;;7.13;3.67;;;;;;;13.35;83.50;101378.97;6158807;23;20032;-80
2021/12/31 01:16:26;;;;;;;5.55;3.50;;;;;;;13.41;83.39;101380.97;6159401;23;20092;-81
2021/12/31 01:21:40;;;;;;;9.00;3.70;;;;;;;13.29;83.59;101375.16;6109120;23;20014;-81
2021/12/31 01:24:29;;;;;;;8.18;3.78;;;;;;;13.22;83.74;101382.03;6159488;23;20395;-80
2021/12/31 01:26:57;;;;;;;6.20;3.38;;;;;;;13.16;84.16;101380.00;6161293;23;20022;-82
2021/12/31 01:29:24;;;;;;;8.15;3.65;;;;;;;13.16;84.38;101384.44;6160495;23;20024;-82
2021/12/31 01:31:55;;;;;;;5.53;3.33;;;;;;;13.18;84.23;101393.00;6160279;23;20022;-83
2021/12/31 01:34:24;;;;;;;5.75;3.67;;;;;;;13.21;84.38;101390.06;6161577;23;20092;-81
2021/12/31 01:36:51;;;;;;;5.22;3.25;;;;;;;13.11;84.89;101376.16;6161307;23;20022;-83
2021/12/31 01:39:17;;;;;;;6.22;3.13;;;;;;;13.22;84.55;101383.84;6160448;23;20032;-83
2021/12/31 01:41:47;;;;;;;7.00;3.60;;;;;;;13.15;84.78;101380.13;6161416;23;20022;-82
2021/12/31 01:44:15;;;;;;;6.95;3.75;;;;;;;13.14;84.43;101381.13;6160967;23;20020;-84
2021/12/31 01:46:56;;;;;;;7.47;3.50;;;;;;;13.09;84.78;101391.25;6167670;23;20129;-81
2021/12/31 01:49:27;;;;;;;5.90;3.30;;;;;;;13.12;84.73;101398.84;6169377;23;20021;-82
2021/12/31 01:51:54;;;;;;;9.55;3.70;;;;;;;13.13;84.11;101389.97;6169243;23;20073;-83
2021/12/31 01:54:21;;;;;;;7.00;3.75;;;;;;;13.07;84.71;101393.22;6169645;23;20021;-82
2021/12/31 01:56:49;;;;;;;6.70;3.60;;;;;;;13.09;84.38;101391.25;6166156;23;20410;-82
2021/12/31 01:59:17;;;;;;;5.90;3.97;;;;;;;13.06;84.79;101383.69;6165586;23;20084;-82
2021/12/31 02:01:47;;;;;;;6.13;3.92;;;;;;;13.10;84.60;101382.41;6161682;23;20076;-82
2021/12/31 02:04:15;;;;;;;8.52;3.95;;;;;;;13.09;84.83;101378.94;6161923;23;20084;-82
2021/12/31 02:06:42;;;;;;;6.07;3.72;;;;;;;12.94;85.42;101385.72;6161964;23;20025;-83
2021/12/31 02:09:09;;;;;;;7.00;3.78;;;;;;;12.99;85.50;101383.47;6160290;23;20339;-83
2021/12/31 02:11:36;;;;;;;6.90;3.67;;;;;;;12.93;85.44;101371.78;6160821;23;20454;-83
2021/12/31 02:14:04;;;;;;;6.30;3.63;;;;;;;12.86;86.00;101390.91;6161581;23;20064;-82
2021/12/31 02:16:31;;;;;;;7.35;3.80;;;;;;;12.75;86.26;101373.63;6161889;23;20081;-81
2021/12/31 02:18:58;;;;;;;6.53;4.30;;;;;;;12.81;86.05;101377.41;6161213;23;20017;-81
2021/12/31 02:21:26;;;;;;;7.18;4.20;;;;;;;12.90;85.50;101385.22;6161838;23;20087;-84
2021/12/31 02:23:55;;;;;;;6.25;4.10;;;;;;;12.80;86.13;101379.22;6161684;23;20021;-80
2021/12/31 02:26:22;;;;;;;6.35;3.75;;;;;;;12.82;86.00;101377.25;6161059;23;20032;-82
2021/12/31 02:28:48;;;;;;;6.60;4.22;;;;;;;12.81;85.82;101375.59;6159333;23;20017;-81
2021/12/31 02:31:15;;;;;;;7.20;4.13;;;;;;;12.84;85.90;101369.22;6159532;23;20024;-81
2021/12/31 02:33:43;;;;;;;4.88;3.50;;;;;;;12.86;85.16;101373.34;6159316;23;20028;-80
2021/12/31 02:36:10;;;;;;;6.80;3.50;;;;;;;12.85;85.09;101376.13;6159846;23;20070;-80
2021/12/31 02:38:38;;;;;;;6.45;3.10;;;;;;;12.91;85.01;101375.53;6160021;23;20029;-81
2021/12/31 02:41:05;;;;;;;7.78;3.38;;;;;;;12.85;85.39;101371.69;6159981;23;20018;-83
2021/12/31 02:43:32;;;;;;;5.25;3.30;;;;;;;12.79;85.50;101363.59;6161313;23;20068;-82
2021/12/31 02:46:00;;;;;;;8.38;3.85;;;;;;;12.84;84.83;101375.31;6161692;23;20041;-83
2021/12/31 02:48:27;;;;;;;5.22;3.50;;;;;;;12.86;85.22;101373.34;6160178;23;20401;-83
2021/12/31 02:50:56;;;;;;;7.90;3.40;;;;;;;12.89;84.99;101373.06;6160753;23;20068;-81
2021/12/31 02:53:31;;;;;;;6.30;4.68;;;;;;;12.92;84.90;101375.38;6162904;23;20025;-84
2021/12/31 02:56:02;;;;;;;4.85;3.50;;;;;;;12.89;84.96;101369.59;6162336;23;20021;-81
2021/12/31 02:58:30;;;;;;;6.07;3.40;;;;;;;12.90;85.05;101373.88;6159060;23;20098;-81
2021/12/31 03:00:57;;;;;;;4.47;3.13;;;;;;;12.85;85.44;101369.06;6161308;23;20057;-81
2021/12/31 03:03:25;;;;;;;5.90;3.78;;;;;;;12.84;85.39;101356.91;6161678;23;20107;-82
2021/12/31 03:05:54;;;;;;;5.18;3.22;;;;;;;12.81;85.47;101364.28;6160066;23;20017;-83
2021/12/31 03:08:22;;;;;;;4.30;3.10;;;;;;;12.85;85.08;101363.81;6160845;23;20017;-82
2021/12/31 03:10:50;;;;;;;6.32;3.15;;;;;;;12.80;85.69;101366.06;6160892;23;20025;-81
2021/12/31 03:13:21;;;;;;;4.85;3.10;;;;;;;12.82;85.47;101366.75;6159169;23;20077;-82
2021/12/31 03:15:51;;;;;;;6.38;3.20;;;;;;;12.79;85.69;101368.84;6160653;23;20033;-81
2021/12/31 03:18:19;;;;;;;6.43;3.20;;;;;;;12.74;86.02;101374.59;6160309;23;20018;-82
2021/12/31 03:20:57;;;;;;;7.80;3.40;;;;;;;12.81;85.63;101365.09;6160110;23;20048;-83
2021/12/31 03:23:24;;;;;;;6.80;3.35;;;;;;;12.88;85.35;101365.31;6160770;23;20025;-82
2021/12/31 03:25:51;;;;;;;6.35;3.40;;;;;;;12.83;85.19;101362.31;6162581;23;20470;-82
2021/12/31 03:28:20;;;;;;;4.10;2.92;;;;;;;12.82;85.38;101364.13;6160887;23;20029;-82
2021/12/31 03:30:46;;;;;;;6.22;3.40;;;;;;;12.79;85.66;101366.22;6162451;23;20080;-82
2021/12/31 03:33:13;;;;;;;7.00;3.45;;;;;;;12.76;85.85;101361.31;6161646;23;20022;-82
2021/12/31 03:35:40;;;;;;;6.03;3.28;;;;;;;12.83;85.57;101367.56;6161628;23;20017;-81
2021/12/31 03:38:07;;;;;;;5.60;3.38;;;;;;;12.85;85.50;101376.13;6161415;23;20017;-82
2021/12/31 03:40:34;;;;;;;4.75;3.17;;;;;;;12.81;85.54;101367.72;6162369;23;20093;-82
2021/12/31 03:43:01;;;;;;;6.47;3.47;;;;;;;12.78;85.75;101354.06;6162147;23;20025;-83
2021/12/31 03:45:29;;;;;;;5.88;3.08;;;;;;;12.78;85.31;101352.28;6162108;23;20125;-82
2021/12/31 03:47:56;;;;;;;6.05;3.50;;;;;;;12.83;85.13;101357.06;6160711;23;20041;-82
2021/12/31 03:50:23;;;;;;;5.68;3.30;;;;;;;12.79;85.25;101351.31;6161398;23;20088;-83
2021/12/31 03:52:49;;;;;;;4.72;3.40;;;;;;;12.76;85.69;101348.97;6161662;23;20021;-83
2021/12/31 03:55:16;;;;;;;4.97;3.38;;;;;;;12.81;85.38;101344.09;6160739;23;20088;-82
2021/12/31 03:57:43;;;;;;;6.80;3.58;;;;;;;12.77;85.23;101339.28;6160811;23;20022;-83
2021/12/31 04:00:13;;;;;;;7.22;3.60;;;;;;;12.66;85.85;101329.88;6162017;23;20328;-82
2021/12/31 04:02:42;;;;;;;6.47;3.50;;;;;;;12.73;85.52;101335.34;6161324;23;20417;-83
2021/12/31 04:05:09;;;;;;;5.72;3.28;;;;;;;12.75;85.63;101334.22;6161602;23;20084;-82
2021/12/31 04:07:35;;;;;;;5.35;3.20;;;;;;;12.67;85.59;101331.53;6160272;23;20025;-83
2021/12/31 04:10:05;;;;;;;7.60;3.60;;;;;;;12.70;85.71;101336.47;6161333;23;20055;-83
2021/12/31 04:12:32;;;;;;;7.13;3.30;;;;;;;12.70;85.50;101327.78;6162321;23;20126;-84
2021/12/31 04:14:59;;;;;;;7.70;3.40;;;;;;;12.73;85.44;101332.72;6163520;23;20048;-84
2021/12/31 04:17:26;;;;;;;4.93;3.42;;;;;;;12.66;85.57;101329.06;6164616;23;20026;-83
2021/12/31 04:19:56;;;;;;;5.57;3.50;;;;;;;12.60;85.89;101325.25;6163020;23;20021;-84
2021/12/31 04:22:24;;;;;;;9.82;4.30;;;;;;;12.51;86.51;101316.47;6162840;23;20045;-84
2021/12/31 04:24:52;;;;;;;6.68;3.50;;;;;;;12.48;86.48;101334.31;6162419;23;20021;-83
2021/12/31 04:27:20;;;;;;;6.85;3.83;;;;;;;12.40;86.85;101321.94;6162284;23;20028;-82
2021/12/31 04:29:52;;;;;;;6.78;3.63;;;;;;;12.39;86.96;101319.47;6161738;23;20025;-84
2021/12/31 04:32:20;;;;;;;8.13;3.70;;;;;;;12.46;86.60;101331.03;6163977;23;20022;-84
2021/12/31 04:34:47;;;;;;;4.68;3.55;;;;;;;12.46;86.47;101323.16;6171130;23;20065;-84
2021/12/31 04:37:15;;;;;;;4.93;3.50;;;;;;;12.51;86.55;101332.22;6181686;23;20072;-84
2021/12/31 04:39:42;;;;;;;4.50;3.50;;;;;;;12.50;86.53;101329.75;6164308;23;20024;-83
2021/12/31 04:42:09;;;;;;;6.88;3.80;;;;;;;12.49;86.40;101328.09;6163035;23;20065;-83
2021/12/31 04:44:36;;;;;;;9.18;3.83;;;;;;;12.51;86.32;101334.03;6162883;23;20128;-83
2021/12/31 04:47:03;;;;;;;5.72;3.83;;;;;;;12.51;86.28;101334.03;6163782;23;20017;-83
2021/12/31 04:49:30;;;;;;;6.70;3.60;;;;;;;12.49;86.12;101322.84;6163093;23;20013;-84
2021/12/31 04:51:56;;;;;;;7.93;4.10;;;;;;;12.45;86.36;101322.31;6163973;23;20025;-84
2021/12/31 04:54:25;;;;;;;5.35;3.72;;;;;;;12.47;86.34;101323.00;6162881;23;20022;-83
2021/12/31 04:56:54;;;;;;;6.38;3.67;;;;;;;12.39;86.46;101312.44;6163368;23;20021;-83
2021/12/31 04:59:21;;;;;;;6.60;3.65;;;;;;;12.43;86.26;101315.56;6161688;23;20017;-83
2021/12/31 05:01:48;;;;;;;5.00;3.80;;;;;;;12.39;86.16;101308.97;6162613;23;20052;-83
2021/12/31 05:04:15;;;;;;;5.53;3.83;;;;;;;12.49;85.95;101315.78;6164668;23;20493;-85
2021/12/31 05:06:42;;;;;;;8.65;3.78;;;;;;;12.44;86.14;101314.59;6163912;23;20017;-84
2021/12/31 05:09:09;;;;;;;5.90;3.80;;;;;;;12.40;86.28;101308.00;6161712;23;20022;-83
2021/12/31 05:11:38;;;;;;;5.95;3.70;;;;;;;12.35;86.33;101311.06;6161880;23;20084;-82
2021/12/31 05:14:05;;;;;;;6.32;3.53;;;;;;;12.40;86.35;101318.50;6161189;23;20017;-81
2021/12/31 05:16:35;;;;;;;6.22;4.00;;;;;;;12.35;86.53;101311.06;6161542;23;20088;-81
2021/12/31 05:19:04;;;;;;;6.40;3.72;;;;;;;12.42;86.18;101327.03;6160275;23;20033;-82
2021/12/31 05:21:30;;;;;;;6.43;3.88;;;;;;;12.40;86.16;101321.94;6169260;23;20017;-77
2021/12/31 05:23:58;;;;;;;4.38;3.25;;;;;;;12.46;85.62;101318.72;6188288;23;20017;-79
2021/12/31 05:26:25;;;;;;;10.18;3.85;;;;;;;12.38;86.17;101323.91;6186923;23;20318;-78
2021/12/31 05:28:53;;;;;;;6.25;3.88;;;;;;;12.42;86.22;101324.41;6185526;23;20029;-77
2021/12/31 05:31:20;;;;;;;6.68;4.05;;;;;;;12.44;86.27;101314.59;6185979;23;20409;-78
2021/12/31 05:33:47;;;;;;;6.53;3.83;;;;;;;12.46;85.92;101310.03;6186210;23;20071;-79
2021/12/31 05:36:13;;;;;;;4.60;3.83;;;;;;;12.44;85.88;101301.47;6187102;23;20091;-78
2021/12/31 05:38:41;;;;;;;6.75;4.10;;;;;;;12.41;85.80;101307.84;6187286;23;20426;-80
2021/12/31 05:41:08;;;;;;;6.50;4.45;;;;;;;12.48;85.38;101310.69;6188813;23;20079;-78
2021/12/31 05:43:34;;;;;;;6.15;4.07;;;;;;;12.36;85.79;101314.53;6190754;23;20017;-79
2021/12/31 05:46:03;;;;;;;7.38;4.32;;;;;;;12.38;86.26;101312.56;6193561;23;20020;-79
2021/12/31 05:48:30;;;;;;;9.65;4.10;;;;;;;12.38;85.81;101317.81;6190801;23;20047;-80
2021/12/31 05:50:57;;;;;;;7.35;4.30;;;;;;;12.40;86.07;101318.50;6192713;23;20080;-80
2021/12/31 05:53:24;;;;;;;6.47;4.07;;;;;;;12.47;85.99;101316.91;6192555;23;20017;-80
2021/12/31 05:55:51;;;;;;;7.72;4.80;;;;;;;12.50;85.64;101314.00;6187760;23;20028;-78
2021/12/31 05:58:19;;;;;;;7.68;4.30;;;;;;;12.46;85.29;101321.34;6189159;23;20029;-79
2021/12/31 06:00:46;;;;;;;5.90;4.38;;;;;;;12.37;86.03;101321.41;6189367;23;20092;-79
2021/12/31 06:03:14;;;;;;;6.45;4.18;;;;;;;12.37;85.90;101318.78;6184908;23;20055;-81
2021/12/31 06:05:41;;;;;;;10.90;9.02;;;;;;;12.40;85.57;101316.69;6187995;23;20103;-80
2021/12/31 06:08:07;;;;;;;11.00;8.07;;;;;;;12.44;85.51;101319.84;6187869;23;20093;-81
2021/12/31 06:10:34;;;;;;;8.77;5.20;;;;;;;12.35;85.57;101311.06;6189714;23;20076;-80
2021/12/31 06:13:06;;;;;;;6.57;4.57;;;;;;;12.29;85.59;101311.69;6189682;23;20024;-81
2021/12/31 06:15:41;;;;;;;8.05;4.93;;;;;;;12.27;85.67;101311.03;6189481;23;20419;-81
2021/12/31 06:18:11;;;;;;;8.77;6.95;;;;;;;12.34;85.66;101316.47;6191687;23;20028;-80
2021/12/31 06:20:42;;;;;;;12.95;9.65;;;;;;;12.28;85.94;101324.00;6192328;23;20107;-80
2021/12/31 06:23:11;;;;;;;9.55;5.47;;;;;;;12.19;86.00;101308.31;6191719;23;20017;-79
2021/12/31 06:25:39;;;;;;;9.88;6.10;;;;;;;12.20;85.53;101310.81;6187179;23;20051;-79
2021/12/31 06:28:07;;;;;;;7.07;4.90;;;;;;;12.17;85.40;101295.34;6187116;23;20021;-81
2021/12/31 06:30:34;;;;;;;8.25;4.75;;;;;;;12.19;85.53;101301.28;6187312;23;20280;-80
2021/12/31 06:33:01;;;;;;;8.15;5.40;;;;;;;12.20;85.48;101316.03;6187791;23;20021;-80
2021/12/31 06:35:28;;;;;;;6.97;4.78;;;;;;;11.98;86.13;101290.25;6187739;23;20036;-79
2021/12/31 06:38:01;;;;;;;7.30;5.85;;;;;;;12.02;86.30;101304.72;6185836;23;20762;-80
2021/12/31 06:40:31;;;;;;;;;;;;;;;12.09;86.13;101318.06;6186152;23;20044;-79
2021/12/31 06:43:05;;;;;;;11.00;7.97;;;;;;;11.92;86.74;101330.19;6185611;23;19927;-79
2021/12/31 06:45:35;;;;;;;6.80;5.25;;;;;;;11.77;86.78;101324.63;6186898;23;20017;-80
2021/12/31 06:48:14;;;;;;;6.40;4.97;;;;;;;11.58;87.36;101295.84;6184932;23;20492;-80
2021/12/31 06:50:51;;;;;;;7.65;5.10;;;;;;;11.48;87.34;101300.31;6186004;23;20028;-82
2021/12/31 06:53:31;;;;;;;10.35;6.70;;;;;;;11.48;87.71;101327.34;6187423;23;20373;-80
2021/12/31 06:56:15;;;;;;;7.25;4.63;;;;;;;11.52;87.75;101328.72;6186006;23;20353;-79
2021/12/31 06:58:51;;;;;;;6.13;5.10;;;;;;;11.40;87.57;101314.13;6184778;23;20067;-79
2021/12/31 07:01:18;;;;;;;9.00;5.10;;;;;;;11.35;87.85;101308.50;6184016;23;20024;-79
2021/12/31 07:03:45;;;;;;;7.80;5.20;;;;;;;11.30;88.63;101313.38;6184553;23;20062;-79
2021/12/31 07:06:12;;;;;;;6.45;4.63;;;;;;;11.28;88.56;101310.06;6188472;23;20040;-80
2021/12/31 07:08:40;;;;;;;6.40;4.60;;;;;;;11.20;89.19;101318.66;6184964;23;20022;-79
2021/12/31 07:11:07;;;;;;;7.80;5.03;;;;;;;11.15;89.09;101322.66;6183429;23;20021;-78
2021/12/31 07:13:35;;;;;;;9.13;6.03;;;;;;;11.07;89.67;101338.25;6185975;23;20044;-80
2021/12/31 07:16:03;;;;;;;6.57;4.72;;;;;;;10.99;90.05;101323.25;6187992;23;20104;-80
2021/12/31 07:18:29;;;;;;;10.50;5.00;;;;;;;10.90;90.26;101324.91;6191726;23;20166;-79
2021/12/31 07:20:56;;;;;;;8.00;4.85;;;;;;;10.85;90.37;101328.94;6192053;23;20059;-78
2021/12/31 07:23:25;;;;;;;8.52;7.10;;;;;;;10.84;90.51;101316.81;6196965;23;20023;-81
2021/12/31 07:26:22;;;;;;;9.25;5.78;;;;;;;10.78;90.43;101312.16;6191373;23;20362;-81
2021/12/31 07:29:06;;;;;;;6.55;5.10;;;;;;;10.84;89.97;101314.22;6176436;23;20029;-81
2021/12/31 07:31:47;;;;;;;9.90;5.32;;;;;;;10.86;89.93;101335.84;6190262;23;20031;-81
2021/12/31 07:34:23;;;;;;;13.90;8.40;;;;;;;10.79;89.90;101325.09;6188646;23;20021;-81
2021/12/31 07:37:46;;;;;;;10.75;6.00;;;;;;;10.78;89.58;101301.69;6190762;23;20309;-80
2021/12/31 07:40:41;;;;;;;8.90;5.32;;;;;;;10.91;89.63;101337.03;6190631;23;20021;-81
2021/12/31 07:52:38;;;;;;;8.23;4.90;;;;;;;11.03;89.02;101336.88;6173419;23;20037;-79
2021/12/31 07:55:05;;;;;;;6.20;5.43;;;;;;;11.05;89.41;101340.19;6187452;23;20048;-82
2021/12/31 07:57:32;;;;;;;9.95;7.65;;;;;;;11.15;89.39;101341.00;6192516;23;20020;-83
2021/12/31 08:00:00;;;;;;;10.25;7.22;;;;;;;11.23;88.64;101334.09;6188810;23;20044;-82
2021/12/31 08:02:27;;;;;;;11.63;8.27;;;;;;;11.37;87.55;101335.38;6193112;23;20021;-81
2021/12/31 08:08:22;;;;;;;;;;;;;;;;;;;;;
2021/12/31 08:11:30;;;;;;;8.30;4.63;;;;;;;11.79;85.48;101324.47;6191796;23;20048;-84
2021/12/31 08:14:01;;;;;;;8.70;4.43;;;;;;;11.79;85.22;101324.47;6191307;23;20017;-82
2021/12/31 08:16:29;;;;;;;7.10;4.72;;;;;;;12.06;84.22;101332.31;6192145;23;20091;-82
2021/12/31 08:18:56;;;;;;;6.57;4.38;;;;;;;11.98;84.11;101329.59;6191923;23;20016;-82
2021/12/31 08:21:22;;;;;;;7.60;4.28;;;;;;;11.94;84.99;101333.47;6192149;23;20112;-82
2021/12/31 08:23:49;;;;;;;7.03;4.15;;;;;;;11.74;84.93;101335.38;6192624;23;20124;-82
2021/12/31 08:26:19;;;;;;;8.60;5.30;;;;;;;11.54;85.97;101321.53;6191839;23;20079;-82
2021/12/31 08:28:51;;;;;;;7.18;5.00;;;;;;;11.49;86.39;101330.78;6190997;23;20034;-81
2021/12/31 08:31:18;;;;;;;9.48;4.43;;;;;;;11.52;86.28;101331.34;6191037;23;20021;-82
2021/12/31 08:33:47;;;;;;;7.50;4.60;;;;;;;11.44;86.56;101331.22;6193997;23;20087;-83
2021/12/31 08:36:19;;;;;;;5.65;3.80;;;;;;;11.44;86.68;101340.88;6192471;23;20044;-83
2021/12/31 08:38:51;;;;;;;5.57;4.28;;;;;;;11.46;86.48;101333.69;6193351;23;20048;-83
2021/12/31 08:41:20;;;;;;;7.25;4.07;;;;;;;11.48;86.28;101337.00;6192717;23;20021;-83
2021/12/31 08:43:47;;;;;;;6.85;4.43;;;;;;;11.66;86.37;101350.19;6192355;23;20096;-81
2021/12/31 08:46:14;;;;;;;7.00;4.85;;;;;;;11.50;86.24;101328.03;6190882;23;20020;-83
2021/12/31 08:48:43;;;;;;;7.32;4.97;;;;;;;11.64;85.82;101327.56;6191096;23;20419;-82
2021/12/31 08:51:11;;;;;;;7.85;5.55;;;;;;;11.55;85.93;101327.59;6191711;23;20310;-83
2021/12/31 08:53:38;;;;;;;12.68;5.65;;;;;;;11.67;86.10;101336.09;6191194;23;20033;-83
2021/12/31 08:56:05;;;;;;;10.27;5.38;;;;;;;11.60;86.73;101346.34;6191432;23;20021;-83
2021/12/31 08:58:35;;;;;;;7.90;4.93;;;;;;;11.60;86.40;101341.91;6192320;23;20025;-82
2021/12/31 09:01:03;;;;;;;5.93;4.70;;;;;;;11.68;86.22;101343.00;6193985;23;20017;-80
2021/12/31 09:03:30;;;;;;;5.80;4.80;;;;;;;11.58;86.65;101338.63;6193305;23;20044;-82
2021/12/31 09:05:56;;;;;;;7.88;4.82;;;;;;;11.59;86.60;101342.88;6194028;23;20092;-81
2021/12/31 09:08:25;;;;;;;6.50;4.18;;;;;;;11.70;86.37;101339.25;6193471;23;20024;-82
2021/12/31 09:10:51;;;;;;;7.20;4.10;;;;;;;11.68;86.11;101343.00;6192337;23;20083;-81
2021/12/31 09:13:19;;;;;;;6.97;4.32;;;;;;;11.73;85.88;101332.91;6191905;23;20417;-81
2021/12/31 09:15:46;;;;;;;5.93;4.40;;;;;;;11.76;85.82;101335.22;6191883;23;20032;-80
2021/12/31 09:18:15;;;;;;;5.90;4.10;;;;;;;11.75;86.15;101341.44;6191514;23;20032;-80
2021/12/31 09:20:42;;;;;;;5.38;4.10;;;;;;;11.76;86.11;101341.28;6192994;23;20076;-81
2021/12/31 09:23:08;;;;;;;7.00;4.38;;;;;;;11.80;86.24;101353.19;6192202;23;20072;-81
2021/12/31 09:25:37;;;;;;;4.35;3.92;;;;;;;11.79;85.81;101345.47;6192256;23;20021;-82
2021/12/31 09:28:04;;;;;;;6.00;4.10;;;;;;;11.83;85.95;101341.53;6192156;23;20535;-81
2021/12/31 09:30:31;;;;;;;5.38;3.63;;;;;;;11.85;85.76;101337.81;6192740;23;20017;-83
2021/12/31 09:32:57;;;;;;;5.32;4.03;;;;;;;11.88;85.81;101336.69;6192413;23;20017;-81
2021/12/31 09:35:24;;;;;;;6.05;3.90;;;;;;;11.98;85.35;101334.84;6191782;23;20036;-80
2021/12/31 09:37:51;;;;;;;4.20;3.50;;;;;;;11.99;85.38;101328.63;6191888;23;20095;-81
2021/12/31 09:40:18;;;;;;;4.38;3.40;;;;;;;12.04;85.14;101342.13;6192476;23;20013;-83
2021/12/31 09:43:08;;;;;;;6.13;3.78;;;;;;;12.11;85.06;101345.78;6191285;23;20017;-80
2021/12/31 09:45:36;;;;;;;9.40;4.50;;;;;;;12.04;84.80;101333.41;6193328;23;20414;-83
2021/12/31 09:48:09;;;;;;;6.85;3.90;;;;;;;12.22;84.41;101342.97;6196769;23;20017;-83
2021/12/31 09:50:36;;;;;;;6.68;3.90;;;;;;;12.14;84.33;101335.00;6204527;23;20497;-79
2021/12/31 09:53:05;;;;;;;8.15;3.80;;;;;;;12.13;83.88;101330.72;6195440;23;20024;-81
2021/12/31 09:55:40;;;;;;;5.05;3.50;;;;;;;12.26;83.99;101344.31;6191589;23;20031;-81
2021/12/31 09:58:10;;;;;;;6.85;4.00;;;;;;;12.28;84.14;101342.38;6190656;23;20021;-81
2021/12/31 10:00:37;;;;;;;6.57;4.07;;;;;;;12.30;84.09;101337.75;6192282;23;20099;-78
2021/12/31 10:03:15;;;;;;;9.60;4.20;;;;;;;12.26;84.31;101323.31;6191328;23;20017;-80
2021/12/31 10:05:43;;;;;;;6.30;4.30;;;;;;;12.15;84.74;101310.44;6191089;23;20021;-81
2021/12/31 10:08:15;;;;;;;8.82;4.50;;;;;;;12.30;84.47;101322.03;6191595;23;20013;-81
2021/12/31 10:10:42;;;;;;;8.23;4.25;;;;;;;12.23;84.05;101304.44;6191387;23;20048;-81
2021/12/31 10:13:10;;;;;;;4.60;3.70;;;;;;;12.31;84.38;101314.97;6190619;23;20017;-80
2021/12/31 10:15:47;;;;;;;5.10;3.97;;;;;;;12.44;84.26;101330.34;6191039;23;20017;-81
2021/12/31 10:18:15;;;;;;;7.47;4.07;;;;;;;12.43;83.87;101333.94;6191846;23;20021;-82
2021/12/31 10:20:49;;;;;;;4.93;3.75;;;;;;;12.45;84.00;101339.88;6191861;23;20056;-81
2021/12/31 10:23:19;;;;;;;6.57;4.07;;;;;;;12.52;84.02;101341.75;6191470;23;20048;-81
2021/12/31 10:25:46;;;;;;;5.25;4.03;;;;;;;12.63;83.61;101335.44;6191305;23;20025;-81
2021/12/31 10:28:16;;;;;;;5.22;4.13;;;;;;;12.72;83.34;101341.59;6191111;23;20017;-82
2021/12/31 10:30:44;;;;;;;12.98;8.07;;;;;;;12.74;83.05;101337.00;6191890;23;20103;-81
2021/12/31 10:33:11;;;;;;;13.98;6.78;;;;;;;12.85;83.06;101339.34;6190350;23;20067;-81
2021/12/31 10:35:40;;;;;;;11.65;5.07;;;;;;;12.89;82.76;101344.16;6192464;23;20458;-82
2021/12/31 10:38:06;;;;;;;5.47;4.40;;;;;;;12.92;82.79;101351.72;6194570;23;20017;-81
2021/12/31 10:40:53;;;;;;;6.90;3.83;;;;;;;13.05;82.21;101353.97;6197173;23;20025;-83
2021/12/31 10:43:25;;;;;;;6.13;3.90;;;;;;;13.01;82.15;101350.00;6199990;23;20037;-81
2021/12/31 10:46:00;;;;;;;5.10;3.92;;;;;;;13.02;82.16;101356.88;6193779;23;20473;-81
2021/12/31 10:48:44;;;;;;;5.07;3.80;;;;;;;13.09;81.79;101352.69;6193186;23;20023;-81
2021/12/31 10:51:15;;;;;;;5.45;3.90;;;;;;;13.18;81.23;101349.16;6203995;23;20021;-80
2021/12/31 10:53:51;;;;;;;8.85;3.70;;;;;;;13.14;80.97;101328.56;6199830;23;20338;-82
2021/12/31 10:56:20;;;;;;;17.30;4.38;;;;;;;13.31;80.47;101330.31;6193346;23;20016;-80
2021/12/31 10:58:59;;;;;;;6.10;3.95;;;;;;;13.34;79.04;101311.59;6192323;23;20021;-80
2021/12/31 11:01:26;;;;;;;4.80;3.60;;;;;;;13.36;78.94;101293.03;6191925;23;20025;-79
2021/12/31 11:04:00;;;;;;;4.45;3.58;;;;;;;13.17;79.85;101291.50;6191658;23;20024;-81
2021/12/31 11:06:30;;;;;;;5.93;3.47;;;;;;;13.48;79.78;101318.91;6191564;23;20071;-81
2021/12/31 11:09:05;;;;;;;4.10;3.58;;;;;;;13.45;79.66;101292.91;6192480;23;20189;-80
2021/12/31 11:11:38;;;;;;;6.03;3.83;;;;;;;13.32;79.70;101286.44;6191963;23;20040;-81
2021/12/31 11:14:06;;;;;;;4.68;3.30;;;;;;;13.40;79.31;101295.19;6191266;23;20099;-80
2021/12/31 11:16:37;;;;;;;3.50;3.20;;;;;;;13.25;80.31;101283.63;6191584;23;20020;-80
2021/12/31 11:19:05;;;;;;;3.97;3.55;;;;;;;13.20;80.46;101291.19;6191872;23;20032;-80
2021/12/31 11:21:32;;;;;;;6.18;3.50;;;;;;;13.20;80.46;101286.75;6190926;23;20016;-80
2021/12/31 11:24:33;;;;;;;5.10;3.53;;;;;;;13.13;80.67;101280.44;6191566;23;20047;-80
2021/12/31 11:27:21;;;;;;;5.20;3.60;;;;;;;13.01;81.67;101276.44;6191433;23;20041;-81
2021/12/31 11:29:49;;;;;;;4.78;3.38;;;;;;;13.06;80.75;101273.34;6191237;23;20048;-81
2021/12/31 11:32:16;;;;;;;4.55;3.08;;;;;;;12.95;80.98;101266.53;6192778;23;20021;-80
2021/12/31 11:34:43;;;;;;;4.40;3.30;;;;;;;13.15;80.23;101283.72;6192054;23;20095;-83
2021/12/31 11:37:30;;;;;;;3.85;3.45;;;;;;;13.06;80.61;101276.78;6190975;23;20062;-78
2021/12/31 11:40:26;;;;;;;6.07;3.50;;;;;;;12.96;80.72;101261.13;6189444;23;20026;-80
2021/12/31 11:43:20;;;;;;;6.00;3.92;;;;;;;13.19;80.31;101273.78;6189493;23;20032;-79
2021/12/31 11:46:22;;;;;;;9.40;4.53;;;;;;;13.17;80.68;101288.88;6190127;23;20492;-80
2021/12/31 11:48:57;;;;;;;5.97;3.47;;;;;;;13.14;80.61;101266.31;6189982;23;20028;-80
2021/12/31 11:51:28;;;;;;;4.93;3.30;;;;;;;13.17;80.53;101270.47;6190098;23;20092;-80
2021/12/31 11:54:17;;;;;;;5.95;3.50;;;;;;;13.22;80.47;101271.66;6190233;23;20017;-80
2021/12/31 11:57:05;;;;;;;4.28;3.60;;;;;;;13.24;81.18;101282.81;6189657;23;20021;-79